Aktualne dane pomiarowe

Uwaga, wersja testowa! Automatyczne pobieranie danych za pomocą narzędzi lub skryptów to umożliwiających jest zabronione.

Dane meteo z obszaru Polski uzyskane na podstawie depesz SYNOP pobieranych co godzinę z NWS. Najedź myszką na symbol przedstawiony w tabeli, aby uzyskać informacje co do jego znaczenia. Prosimy pamiętać, że to testowa wersja strony, która jeszcze nie jest ukończona. Stworzono również jest krótki FAQ dotyczący korzystania z tej podstrony Anomalie temperatury w chwili obecnej odniesione są do okresu referencyjnego 1951-2016. Okres ten będzie później zmieniony na 1981-2010. Kliknij ikonę aby pobrać plik CSV. Kliknij ikonę aby wygenerować mapę synoptyczną dla danego terminu.

Wybierz Datę:    

        

Mińsk Mazowiecki (12376)

Dane terminowe dla wybranej stacji. Kliknij datę, aby otrzymać dane z tego terminu dla wszystkich stacji.

TemperaturaZachmurzenieWiatrCiśnienieOpadyPogoda
 Data t td wb tx tn tg rh  Nt Nl Cl Cm Ch ws wd g1 g2 wx mslp ppp ch 24h 12h t ww ww w1 w2  
2019-07-12 23:00:00 14.6 11.4 12.5--- 8110.0wx-wx1wx---1009.5 987.8 -0.2---------
2019-07-12 22:00:00 14.9 11.5 12.6--- 8010.0wx-wx1wx---1009.5 987.8 0.0---------
2019-07-12 21:00:00 15.3 10.9 12.5--- 7510.0wx-wx2wx---1009.6 987.9 0.5---------
2019-07-12 20:00:00 14.4 10.4 11.8--- 7710.0wx-wx2wx---1009.8 988.0 0.4---------
2019-07-12 19:00:00 16.1 10.9 12.8--- 7110.0wxwxwxwx2wx---1009.4 987.8 0.5---------
2019-07-12 18:00:00 18.0 10.1 13.2--- 6010.0wx-wx2wx---1008.9 987.4 0.1---------
2019-07-12 17:00:00 19.1 10.7 14.0--- 5810.0wxwxwxwx4wx---1009.0 987.6 -0.1---------
2019-07-12 16:00:00 21.5 9.1 14.3--- 4510.0wxwxwxwx7wx---1008.5 987.3 -0.7---------
2019-07-12 15:00:00 24.2 9.0 15.4--- 3810.0wxwxwxwx3wx---1008.3 987.3 -0.9---------
2019-07-12 14:00:00 24.5 8.1 15.2--- 3510.0wxwxwxwx3wx---1008.7 987.7 -0.9---------
2019-07-12 13:00:00 22.8 8.9 14.8--- 4110.0wxwxwxwx2wx---1009.2 988.0 -0.9---------
2019-07-12 12:00:00 22.4 8.2 14.3--- 4010.0wxwxwxwx3wx---1009.4 988.2 -0.8---------
2019-07-12 11:00:00 22.0 9.9 14.9--- 4610.0wxwxwxwx3wx---1009.8 988.6 -0.5---------
2019-07-12 10:00:00 21.1 8.1 13.7--- 4310.0wxwxwxwx4wx---1010.2 988.9 -0.3---------
2019-07-12 09:00:00 20.7 8.0 13.5--- 4410.0wx-wx4wx---1010.3 989.0 -0.2---------
2019-07-12 08:00:00 20.0 7.4 12.9--- 4410.0wx-wx4wx---1010.5 989.1 0.0---------
2019-07-12 07:00:00 18.8 8.2 12.7--- 5010.0wx-wx3wx---1010.7 989.2 0.2---------
2019-07-12 06:00:00 16.2 10.1 12.4--- 6710.0wx-wx3wx---1010.8 989.2 0.1---------
2019-07-12 05:00:00 12.8 10.5 11.2--- 8610.0wx-wx2wx---1011.1 989.2 0.1---------
2019-07-12 04:00:00 12.1 11.2 11.4--- 9410.0wx-wx1wx---1011.0 989.1 -0.1---------
2019-07-12 03:00:00 7.7 7.0 7.2--- 9510.0wx-wx1wx---1011.4 989.1 -0.4---------
2019-07-12 02:00:00 7.8 6.9 7.1--- 9410.0wx-1wx---1011.4 989.1 -0.4---------
2019-07-12 01:00:00 8.7 7.6 7.9--- 9310.0wx-1wx---1011.4 989.2 -0.2---------
2019-07-12 00:00:00 10.0 8.6 9.0--- 9110.0wx-1wx---1011.6 989.5 0.2---------
2019-07-11 23:00:00 11.3 8.7 9.6--- 8410.0wx-wx2wx---1011.5 989.5 0.4---------
2019-07-11 22:00:00 11.7 9.3 10.1--- 8510.0wx-wx2wx---1011.4 989.4 0.4---------
2019-07-11 21:00:00 13.1 9.9 11.0--- 8110.0wx-wx2wx---1011.1 989.2 0.4---------
2019-07-11 20:00:00 14.3 9.7 11.4--- 7410.0wx-wx1wx---1010.9 989.1 0.1---------
2019-07-11 19:00:00 15.6 10.2 12.2--- 7010.0wx-wx1wx---1010.7 989.0 0.1---------
2019-07-11 18:00:00 16.4 10.7 12.8--- 6910.0wx-wx1wx---1010.4 988.8 -0.2---------
2019-07-11 17:00:00 17.7 9.4 12.7--- 5810.0wx-wx3wx---1010.5 989.0 -0.1---------
2019-07-11 16:00:00 19.1 7.6 12.6--- 4710.0wx-wx5wx---1010.3 988.9 0.0---------
2019-07-11 15:00:00 19.3 8.4 13.0--- 4910.0wxwxwxwx4wx---1010.4 989.0 0.0---------
2019-07-11 14:00:00 18.5 9.0 12.9--- 5410.0wxwxwxwx4wx---1010.5 989.0 -0.1---------
2019-07-11 13:00:00 19.1 9.3 13.3--- 5310.0wxwxwxwx5wx---1010.3 988.9 -0.5---------
2019-07-11 12:00:00 18.0 10.1 13.2--- 6010.0wxwxwx4wx---1010.5 989.0 -0.6---------
2019-07-11 11:00:00 18.8 10.6 13.8--- 5910.0wxwxwx4wx---1010.6 989.1 -0.2---------
2019-07-11 10:00:00 16.8 11.1 13.2--- 6910.0wxwxwx4wx---1011.0 989.4 0.4---------
2019-07-11 09:00:00 14.5 10.3 11.8--- 7610.0wxwxwx4wx---1011.4 989.6 0.7---------
2019-07-11 08:00:00 14.5 10.3 11.8--- 7610.0wxwxwx3wx---1011.1 989.3 0.7---wx-w1--
2019-07-11 07:00:00 14.1 10.5 11.7--- 7910.0wxwxwx3wx---1010.8 989.0 0.5---------
2019-07-11 06:00:00 13.2 10.7 11.5--- 8510.0wxwxwx3wx---1010.8 988.9 0.3---------
2019-07-11 05:00:00 11.0 9.6 10.0--- 9110.0wxwxwx3wx---1010.6 988.6 0.1---------
2019-07-11 04:00:00 10.4 9.0 9.4--- 9110.0wxwxwx3wx---1010.6 988.5 -0.1---------
2019-07-11 03:00:00 8.5 7.4 7.7--- 9310.0wxwxwx3wx---1010.8 988.6 -0.1---------
1.0 ms

 

Print Friendly, PDF & Email